sensor_id;sensor_type;location;lat;lon;timestamp;pressure;altitude;pressure_sealevel;temperature;humidity
17635;BME280;8936;49.010;12.120;2023-05-09T00:00:11;98348.88;;;16.15;100.00
17635;BME280;8936;49.010;12.120;2023-05-09T00:02:37;98344.03;;;16.36;100.00
17635;BME280;8936;49.010;12.120;2023-05-09T00:05:04;98340.53;;;16.54;100.00
17635;BME280;8936;49.010;12.120;2023-05-09T00:07:31;98342.59;;;16.99;100.00
17635;BME280;8936;49.010;12.120;2023-05-09T00:09:58;98330.69;;;17.00;100.00
17635;BME280;8936;49.010;12.120;2023-05-09T00:12:25;98326.56;;;17.08;100.00
17635;BME280;8936;49.010;12.120;2023-05-09T00:14:52;98331.78;;;16.99;100.00
17635;BME280;8936;49.010;12.120;2023-05-09T00:17:22;98328.50;;;17.02;100.00
17635;BME280;8936;49.010;12.120;2023-05-09T00:19:48;98342.00;;;16.65;100.00
17635;BME280;8936;49.010;12.120;2023-05-09T00:22:15;98336.16;;;16.39;100.00
17635;BME280;8936;49.010;12.120;2023-05-09T00:24:41;98333.97;;;16.41;100.00
17635;BME280;8936;49.010;12.120;2023-05-09T00:27:08;98333.28;;;16.54;100.00
17635;BME280;8936;49.010;12.120;2023-05-09T00:29:35;98326.81;;;16.74;100.00
17635;BME280;8936;49.010;12.120;2023-05-09T00:32:01;98318.03;;;16.82;100.00
17635;BME280;8936;49.010;12.120;2023-05-09T00:34:29;98310.84;;;17.10;100.00
17635;BME280;8936;49.010;12.120;2023-05-09T00:36:55;98314.75;;;17.50;100.00
17635;BME280;8936;49.010;12.120;2023-05-09T00:39:21;98312.91;;;17.77;100.00
17635;BME280;8936;49.010;12.120;2023-05-09T00:41:48;98313.00;;;17.86;100.00
17635;BME280;8936;49.010;12.120;2023-05-09T00:44:14;98309.50;;;17.72;100.00
17635;BME280;8936;49.010;12.120;2023-05-09T00:46:40;98299.00;;;17.57;100.00
17635;BME280;8936;49.010;12.120;2023-05-09T00:49:07;98299.28;;;17.55;100.00
17635;BME280;8936;49.010;12.120;2023-05-09T00:51:35;98299.00;;;17.57;100.00
17635;BME280;8936;49.010;12.120;2023-05-09T00:54:02;98300.16;;;17.51;100.00
17635;BME280;8936;49.010;12.120;2023-05-09T00:56:28;98296.75;;;17.45;100.00
17635;BME280;8936;49.010;12.120;2023-05-09T00:58:55;98295.25;;;17.39;100.00
17635;BME280;8936;49.010;12.120;2023-05-09T01:01:22;98289.00;;;17.57;100.00
17635;BME280;8936;49.010;12.120;2023-05-09T01:03:48;98297.38;;;17.83;100.00
17635;BME280;8936;49.010;12.120;2023-05-09T01:06:16;98294.22;;;17.95;100.00
17635;BME280;8936;49.010;12.120;2023-05-09T01:08:49;98297.81;;;18.04;100.00
17635;BME280;8936;49.010;12.120;2023-05-09T01:11:21;98295.09;;;18.04;100.00
17635;BME280;8936;49.010;12.120;2023-05-09T01:13:49;98301.91;;;17.88;100.00
17635;BME280;8936;49.010;12.120;2023-05-09T01:16:18;98299.19;;;17.74;100.00
17635;BME280;8936;49.010;12.120;2023-05-09T01:18:49;98302.66;;;17.47;100.00
17635;BME280;8936;49.010;12.120;2023-05-09T01:21:19;98293.13;;;17.50;100.00
17635;BME280;8936;49.010;12.120;2023-05-09T01:23:58;98283.84;;;17.42;100.00
17635;BME280;8936;49.010;12.120;2023-05-09T01:26:33;98286.50;;;17.28;100.00
17635;BME280;8936;49.010;12.120;2023-05-09T01:29:26;98286.53;;;17.42;100.00
17635;BME280;8936;49.010;12.120;2023-05-09T01:31:56;98293.09;;;17.22;100.00
17635;BME280;8936;49.010;12.120;2023-05-09T01:34:23;98273.72;;;17.34;100.00
17635;BME280;8936;49.010;12.120;2023-05-09T01:36:52;98277.78;;;17.18;100.00
17635;BME280;8936;49.010;12.120;2023-05-09T01:39:21;98271.25;;;17.05;100.00
17635;BME280;8936;49.010;12.120;2023-05-09T01:41:49;98269.88;;;17.21;100.00
17635;BME280;8936;49.010;12.120;2023-05-09T01:44:18;98276.56;;;17.10;100.00
17635;BME280;8936;49.010;12.120;2023-05-09T01:46:46;98277.16;;;17.07;100.00
17635;BME280;8936;49.010;12.120;2023-05-09T01:49:14;98269.19;;;16.84;100.00
17635;BME280;8936;49.010;12.120;2023-05-09T01:51:41;98274.38;;;16.43;100.00
17635;BME280;8936;49.010;12.120;2023-05-09T01:54:08;98274.28;;;16.10;100.00
17635;BME280;8936;49.010;12.120;2023-05-09T01:56:35;98267.69;;;16.22;100.00
17635;BME280;8936;49.010;12.120;2023-05-09T01:59:03;98269.72;;;16.30;100.00
17635;BME280;8936;49.010;12.120;2023-05-09T02:01:31;98265.84;;;16.36;100.00
17635;BME280;8936;49.010;12.120;2023-05-09T02:03:59;98266.56;;;16.23;100.00
17635;BME280;8936;49.010;12.120;2023-05-09T02:06:28;98260.94;;;16.19;100.00
17635;BME280;8936;49.010;12.120;2023-05-09T02:08:55;98257.06;;;16.06;100.00
17635;BME280;8936;49.010;12.120;2023-05-09T02:11:22;98253.50;;;15.92;100.00
17635;BME280;8936;49.010;12.120;2023-05-09T02:13:48;98258.13;;;15.68;100.00
17635;BME280;8936;49.010;12.120;2023-05-09T02:16:14;98253.63;;;15.82;100.00
17635;BME280;8936;49.010;12.120;2023-05-09T02:18:41;98250.44;;;15.80;100.00
17635;BME280;8936;49.010;12.120;2023-05-09T02:21:08;98258.56;;;15.75;100.00
17635;BME280;8936;49.010;12.120;2023-05-09T02:23:35;98260.03;;;15.86;100.00
17635;BME280;8936;49.010;12.120;2023-05-09T02:26:01;98257.59;;;15.90;100.00
17635;BME280;8936;49.010;12.120;2023-05-09T02:28:28;98260.03;;;15.86;100.00
17635;BME280;8936;49.010;12.120;2023-05-09T02:30:56;98270.88;;;16.24;100.00
17635;BME280;8936;49.010;12.120;2023-05-09T02:33:23;98269.03;;;16.38;100.00
17635;BME280;8936;49.010;12.120;2023-05-09T02:35:50;98257.03;;;16.49;100.00
17635;BME280;8936;49.010;12.120;2023-05-09T02:38:18;98255.56;;;16.19;100.00
17635;BME280;8936;49.010;12.120;2023-05-09T02:40:45;98258.16;;;15.87;100.00
17635;BME280;8936;49.010;12.120;2023-05-09T02:43:12;98259.84;;;15.59;100.00
17635;BME280;8936;49.010;12.120;2023-05-09T02:45:39;98254.03;;;15.47;100.00
17635;BME280;8936;49.010;12.120;2023-05-09T02:48:05;98255.28;;;15.54;100.00
17635;BME280;8936;49.010;12.120;2023-05-09T02:50:32;98255.88;;;15.75;100.00
17635;BME280;8936;49.010;12.120;2023-05-09T02:52:58;98251.00;;;15.77;100.00
17635;BME280;8936;49.010;12.120;2023-05-09T02:55:26;98247.78;;;16.17;100.00
17635;BME280;8936;49.010;12.120;2023-05-09T02:57:52;98240.28;;;16.33;100.00
17635;BME280;8936;49.010;12.120;2023-05-09T03:00:19;98243.19;;;16.18;100.00
17635;BME280;8936;49.010;12.120;2023-05-09T03:02:46;98241.78;;;16.02;100.00
17635;BME280;8936;49.010;12.120;2023-05-09T03:05:12;98236.69;;;16.00;100.00
17635;BME280;8936;49.010;12.120;2023-05-09T03:07:39;98240.16;;;16.25;100.00
17635;BME280;8936;49.010;12.120;2023-05-09T03:10:05;98239.13;;;16.58;100.00
17635;BME280;8936;49.010;12.120;2023-05-09T03:12:33;98240.28;;;16.33;100.00
17635;BME280;8936;49.010;12.120;2023-05-09T03:14:59;98235.09;;;15.99;100.00
17635;BME280;8936;49.010;12.120;2023-05-09T03:17:26;98232.63;;;16.03;100.00
17635;BME280;8936;49.010;12.120;2023-05-09T03:19:52;98230.66;;;16.08;100.00
17635;BME280;8936;49.010;12.120;2023-05-09T03:22:19;98226.63;;;15.69;100.00
17635;BME280;8936;49.010;12.120;2023-05-09T03:24:45;98227.97;;;15.66;100.00
17635;BME280;8936;49.010;12.120;2023-05-09T03:27:11;98223.22;;;16.19;100.00
17635;BME280;8936;49.010;12.120;2023-05-09T03:29:39;98220.03;;;15.98;100.00
17635;BME280;8936;49.010;12.120;2023-05-09T03:38:11;98226.50;;;16.16;100.00
17635;BME280;8936;49.010;12.120;2023-05-09T03:40:38;98225.88;;;16.43;100.00
17635;BME280;8936;49.010;12.120;2023-05-09T03:43:04;98216.88;;;16.66;100.00
17635;BME280;8936;49.010;12.120;2023-05-09T03:45:32;98218.66;;;16.89;100.00
17635;BME280;8936;49.010;12.120;2023-05-09T03:47:59;98223.78;;;17.04;100.00
17635;BME280;8936;49.010;12.120;2023-05-09T03:50:27;98228.00;;;17.10;100.00
17635;BME280;8936;49.010;12.120;2023-05-09T03:52:54;98222.00;;;17.13;100.00
17635;BME280;8936;49.010;12.120;2023-05-09T03:55:21;98213.38;;;17.11;100.00
17635;BME280;8936;49.010;12.120;2023-05-09T03:57:48;98222.66;;;17.05;100.00
17635;BME280;8936;49.010;12.120;2023-05-09T04:00:14;98214.19;;;16.98;100.00
17635;BME280;8936;49.010;12.120;2023-05-09T04:02:42;98219.31;;;16.81;100.00
17635;BME280;8936;49.010;12.120;2023-05-09T04:05:08;98217.41;;;16.49;100.00
17635;BME280;8936;49.010;12.120;2023-05-09T04:07:35;98220.03;;;16.54;100.00
17635;BME280;8936;49.010;12.120;2023-05-09T04:10:01;98213.38;;;16.47;100.00
17635;BME280;8936;49.010;12.120;2023-05-09T04:12:27;98218.72;;;16.33;100.00
17635;BME280;8936;49.010;12.120;2023-05-09T04:14:54;98216.25;;;15.99;100.00
17635;BME280;8936;49.010;12.120;2023-05-09T04:17:20;98219.25;;;15.74;100.00
17635;BME280;8936;49.010;12.120;2023-05-09T04:19:48;98219.41;;;15.35;100.00
17635;BME280;8936;49.010;12.120;2023-05-09T04:22:14;98220.94;;;14.94;100.00
17635;BME280;8936;49.010;12.120;2023-05-09T04:24:41;98213.44;;;14.91;100.00
17635;BME280;8936;49.010;12.120;2023-05-09T04:27:07;98212.31;;;14.92;100.00
17635;BME280;8936;49.010;12.120;2023-05-09T04:29:33;98212.47;;;15.05;100.00
17635;BME280;8936;49.010;12.120;2023-05-09T04:32:00;98211.84;;;15.13;100.00
17635;BME280;8936;49.010;12.120;2023-05-09T04:34:26;98217.78;;;15.63;100.00
17635;BME280;8936;49.010;12.120;2023-05-09T04:36:55;98218.31;;;15.12;100.00
17635;BME280;8936;49.010;12.120;2023-05-09T04:39:21;98214.03;;;15.11;100.00
17635;BME280;8936;49.010;12.120;2023-05-09T04:41:47;98221.19;;;14.92;100.00
17635;BME280;8936;49.010;12.120;2023-05-09T04:44:14;98221.09;;;15.02;100.00
17635;BME280;8936;49.010;12.120;2023-05-09T04:46:40;98218.41;;;15.31;100.00
17635;BME280;8936;49.010;12.120;2023-05-09T04:49:07;98223.38;;;15.19;100.00
17635;BME280;8936;49.010;12.120;2023-05-09T04:51:33;98226.06;;;15.43;100.00
17635;BME280;8936;49.010;12.120;2023-05-09T04:54:00;98227.56;;;15.54;100.00
17635;BME280;8936;49.010;12.120;2023-05-09T04:56:27;98222.66;;;15.61;100.00
17635;BME280;8936;49.010;12.120;2023-05-09T04:58:53;98226.56;;;15.92;100.00
17635;BME280;8936;49.010;12.120;2023-05-09T05:01:20;98226.88;;;15.43;100.00
17635;BME280;8936;49.010;12.120;2023-05-09T05:03:46;98222.72;;;15.03;100.00
17635;BME280;8936;49.010;12.120;2023-05-09T05:06:12;98222.38;;;15.10;100.00
17635;BME280;8936;49.010;12.120;2023-05-09T05:08:39;98220.00;;;14.75;100.00
17635;BME280;8936;49.010;12.120;2023-05-09T05:11:06;98215.25;;;14.95;100.00
17635;BME280;8936;49.010;12.120;2023-05-09T05:13:33;98211.72;;;15.00;100.00
17635;BME280;8936;49.010;12.120;2023-05-09T05:15:59;98208.38;;;14.84;100.00
17635;BME280;8936;49.010;12.120;2023-05-09T05:18:25;98210.59;;;15.06;100.00
17635;BME280;8936;49.010;12.120;2023-05-09T05:20:52;98210.34;;;15.02;100.00
17635;BME280;8936;49.010;12.120;2023-05-09T05:23:18;98216.28;;;14.99;100.00
17635;BME280;8936;49.010;12.120;2023-05-09T05:25:45;98218.75;;;15.20;100.00
17635;BME280;8936;49.010;12.120;2023-05-09T05:28:12;98213.28;;;15.30;100.00
17635;BME280;8936;49.010;12.120;2023-05-09T05:30:39;98211.06;;;15.37;100.00
17635;BME280;8936;49.010;12.120;2023-05-09T05:33:05;98216.38;;;15.42;100.00
17635;BME280;8936;49.010;12.120;2023-05-09T05:35:31;98221.66;;;14.99;100.00
17635;BME280;8936;49.010;12.120;2023-05-09T05:37:58;98206.81;;;14.44;100.00
17635;BME280;8936;49.010;12.120;2023-05-09T05:40:25;98216.25;;;14.42;100.00
17635;BME280;8936;49.010;12.120;2023-05-09T05:42:51;98209.59;;;14.68;100.00
17635;BME280;8936;49.010;12.120;2023-05-09T05:45:19;98214.91;;;15.31;100.00
17635;BME280;8936;49.010;12.120;2023-05-09T05:47:46;98206.38;;;15.71;100.00
17635;BME280;8936;49.010;12.120;2023-05-09T05:50:12;98214.50;;;16.08;100.00
17635;BME280;8936;49.010;12.120;2023-05-09T05:52:38;98212.28;;;15.92;100.00
17635;BME280;8936;49.010;12.120;2023-05-09T05:55:05;98207.00;;;15.63;100.00
17635;BME280;8936;49.010;12.120;2023-05-09T05:57:32;98214.50;;;15.42;100.00
17635;BME280;8936;49.010;12.120;2023-05-09T05:59:58;98208.81;;;15.20;100.00
17635;BME280;8936;49.010;12.120;2023-05-09T06:02:26;98212.22;;;15.31;100.00
17635;BME280;8936;49.010;12.120;2023-05-09T06:04:52;98200.53;;;15.40;100.00
17635;BME280;8936;49.010;12.120;2023-05-09T06:07:19;98204.25;;;15.21;100.00
17635;BME280;8936;49.010;12.120;2023-05-09T06:09:45;98193.63;;;15.58;100.00
17635;BME280;8936;49.010;12.120;2023-05-09T06:12:11;98194.53;;;15.48;92.28
17635;BME280;8936;49.010;12.120;2023-05-09T06:14:40;98193.88;;;15.33;89.51
17635;BME280;8936;49.010;12.120;2023-05-09T06:17:06;98202.31;;;15.74;90.07
17635;BME280;8936;49.010;12.120;2023-05-09T06:19:34;98195.81;;;15.56;86.17
17635;BME280;8936;49.010;12.120;2023-05-09T06:22:01;98190.00;;;15.68;85.00
17635;BME280;8936;49.010;12.120;2023-05-09T06:24:27;98189.66;;;15.74;84.49
17635;BME280;8936;49.010;12.120;2023-05-09T06:26:54;98189.66;;;15.74;82.98
17635;BME280;8936;49.010;12.120;2023-05-09T06:29:20;98185.41;;;15.68;83.50
17635;BME280;8936;49.010;12.120;2023-05-09T06:31:46;98190.94;;;15.77;84.32
17635;BME280;8936;49.010;12.120;2023-05-09T06:34:13;98195.06;;;15.93;83.26
17635;BME280;8936;49.010;12.120;2023-05-09T06:36:40;98194.69;;;15.99;82.13
17635;BME280;8936;49.010;12.120;2023-05-09T06:39:07;98186.88;;;16.16;80.94
17635;BME280;8936;49.010;12.120;2023-05-09T06:41:33;98182.63;;;16.48;83.31
17635;BME280;8936;49.010;12.120;2023-05-09T06:43:59;98177.59;;;17.06;77.93
17635;BME280;8936;49.010;12.120;2023-05-09T06:46:27;98180.97;;;16.52;76.55
17635;BME280;8936;49.010;12.120;2023-05-09T06:48:53;98186.06;;;16.35;76.35
17635;BME280;8936;49.010;12.120;2023-05-09T06:51:19;98175.13;;;16.63;78.21
17635;BME280;8936;49.010;12.120;2023-05-09T06:53:47;98176.38;;;16.71;75.27
17635;BME280;8936;49.010;12.120;2023-05-09T06:56:13;98178.22;;;16.19;75.61
17635;BME280;8936;49.010;12.120;2023-05-09T06:58:41;98181.22;;;16.37;76.65
17635;BME280;8936;49.010;12.120;2023-05-09T07:01:07;98182.66;;;16.10;76.25
17635;BME280;8936;49.010;12.120;2023-05-09T07:03:33;98177.34;;;16.24;78.93
17635;BME280;8936;49.010;12.120;2023-05-09T07:06:00;98182.06;;;15.76;74.62
17635;BME280;8936;49.010;12.120;2023-05-09T07:08:26;98181.13;;;15.67;76.16
17635;BME280;8936;49.010;12.120;2023-05-09T07:10:54;98171.84;;;15.78;76.75
17635;BME280;8936;49.010;12.120;2023-05-09T07:13:20;98178.91;;;15.69;76.70
17635;BME280;8936;49.010;12.120;2023-05-09T07:15:46;98174.91;;;15.66;76.86
17635;BME280;8936;49.010;12.120;2023-05-09T07:18:13;98159.88;;;15.42;78.92
17635;BME280;8936;49.010;12.120;2023-05-09T07:20:39;98153.91;;;15.45;80.80
17635;BME280;8936;49.010;12.120;2023-05-09T07:23:05;98146.91;;;15.68;81.44
17635;BME280;8936;49.010;12.120;2023-05-09T07:25:32;98151.19;;;15.50;81.99
17635;BME280;8936;49.010;12.120;2023-05-09T07:27:59;98144.63;;;15.32;84.36
17635;BME280;8936;49.010;12.120;2023-05-09T07:30:26;98140.88;;;15.94;84.97
17635;BME280;8936;49.010;12.120;2023-05-09T07:32:52;98136.59;;;15.93;81.52
17635;BME280;8936;49.010;12.120;2023-05-09T07:35:18;98147.00;;;15.81;81.57
17635;BME280;8936;49.010;12.120;2023-05-09T07:37:45;98135.06;;;15.69;81.14
17635;BME280;8936;49.010;12.120;2023-05-09T07:40:12;98143.28;;;15.77;84.45
17635;BME280;8936;49.010;12.120;2023-05-09T07:42:38;98120.50;;;15.88;85.06
17635;BME280;8936;49.010;12.120;2023-05-09T07:45:06;98131.13;;;16.49;83.54
17635;BME280;8936;49.010;12.120;2023-05-09T07:47:34;98124.03;;;16.86;78.58
17635;BME280;8936;49.010;12.120;2023-05-09T07:50:00;98126.97;;;16.57;79.00
17635;BME280;8936;49.010;12.120;2023-05-09T07:52:27;98117.41;;;16.64;77.93
17635;BME280;8936;49.010;12.120;2023-05-09T07:54:53;98121.19;;;16.12;79.87
17635;BME280;8936;49.010;12.120;2023-05-09T07:57:19;98117.72;;;16.90;81.44
17635;BME280;8936;49.010;12.120;2023-05-09T07:59:46;98109.34;;;17.33;75.77
17635;BME280;8936;49.010;12.120;2023-05-09T08:02:14;98107.06;;;16.99;77.09
17635;BME280;8936;49.010;12.120;2023-05-09T08:04:40;98101.25;;;16.92;75.19
17635;BME280;8936;49.010;12.120;2023-05-09T08:07:06;98091.66;;;17.13;78.59
17635;BME280;8936;49.010;12.120;2023-05-09T08:09:33;98104.75;;;17.19;75.55
17635;BME280;8936;49.010;12.120;2023-05-09T08:11:59;98094.88;;;16.74;78.92
17635;BME280;8936;49.010;12.120;2023-05-09T08:14:26;98100.50;;;16.59;78.91
17635;BME280;8936;49.010;12.120;2023-05-09T08:16:52;98108.94;;;16.71;80.25
17635;BME280;8936;49.010;12.120;2023-05-09T08:19:20;98101.75;;;16.48;80.05
17635;BME280;8936;49.010;12.120;2023-05-09T08:21:48;98088.88;;;16.77;80.52
17635;BME280;8936;49.010;12.120;2023-05-09T08:24:14;98088.66;;;17.14;76.91
17635;BME280;8936;49.010;12.120;2023-05-09T08:26:41;98092.44;;;16.72;77.94
17635;BME280;8936;49.010;12.120;2023-05-09T08:29:08;98080.38;;;16.70;79.44
17635;BME280;8936;49.010;12.120;2023-05-09T08:31:34;98080.06;;;16.71;80.07
17635;BME280;8936;49.010;12.120;2023-05-09T08:34:00;98059.69;;;16.79;78.98
17635;BME280;8936;49.010;12.120;2023-05-09T08:36:28;98062.28;;;16.98;78.33
17635;BME280;8936;49.010;12.120;2023-05-09T08:38:54;98059.56;;;17.11;77.10
17635;BME280;8936;49.010;12.120;2023-05-09T08:41:22;98060.81;;;16.92;75.35
17635;BME280;8936;49.010;12.120;2023-05-09T08:43:50;98056.78;;;16.76;77.18
17635;BME280;8936;49.010;12.120;2023-05-09T08:46:17;98058.88;;;16.65;76.92
17635;BME280;8936;49.010;12.120;2023-05-09T08:48:44;98047.31;;;16.92;78.03
17635;BME280;8936;49.010;12.120;2023-05-09T08:51:10;98044.28;;;16.93;72.71
17635;BME280;8936;49.010;12.120;2023-05-09T08:53:38;98042.00;;;16.73;70.96
17635;BME280;8936;49.010;12.120;2023-05-09T08:56:05;98056.69;;;16.67;73.89
17635;BME280;8936;49.010;12.120;2023-05-09T08:58:32;98040.25;;;17.32;73.92
17635;BME280;8936;49.010;12.120;2023-05-09T09:00:59;98051.63;;;17.56;68.76
17635;BME280;8936;49.010;12.120;2023-05-09T09:03:29;98039.94;;;17.47;70.72
17635;BME280;8936;49.010;12.120;2023-05-09T09:05:55;98041.03;;;17.46;68.15
17635;BME280;8936;49.010;12.120;2023-05-09T09:08:22;98030.97;;;17.24;72.77
17635;BME280;8936;49.010;12.120;2023-05-09T09:10:50;98039.13;;;17.60;73.21
17635;BME280;8936;49.010;12.120;2023-05-09T09:13:17;98032.09;;;17.23;72.56
17635;BME280;8936;49.010;12.120;2023-05-09T09:15:44;98027.91;;;17.17;75.69
17635;BME280;8936;49.010;12.120;2023-05-09T09:18:11;98019.69;;;17.08;75.75
17635;BME280;8936;49.010;12.120;2023-05-09T09:20:44;98022.88;;;17.96;76.98
17635;BME280;8936;49.010;12.120;2023-05-09T09:23:10;98019.34;;;18.17;75.29
17635;BME280;8936;49.010;12.120;2023-05-09T09:25:37;98023.81;;;17.91;72.57
17635;BME280;8936;49.010;12.120;2023-05-09T09:28:05;98014.41;;;17.66;72.95
17635;BME280;8936;49.010;12.120;2023-05-09T09:30:45;98016.34;;;17.74;71.40
17635;BME280;8936;49.010;12.120;2023-05-09T09:33:26;98008.69;;;17.32;73.28
17635;BME280;8936;49.010;12.120;2023-05-09T09:35:54;98001.31;;;17.60;74.83
17635;BME280;8936;49.010;12.120;2023-05-09T09:38:21;97999.97;;;17.93;72.58
17635;BME280;8936;49.010;12.120;2023-05-09T09:40:48;98007.72;;;17.64;72.71
17635;BME280;8936;49.010;12.120;2023-05-09T09:43:15;97994.94;;;17.56;73.15
17635;BME280;8936;49.010;12.120;2023-05-09T09:45:42;97979.66;;;17.38;71.81
17635;BME280;8936;49.010;12.120;2023-05-09T09:48:08;97992.38;;;17.73;71.36
17635;BME280;8936;49.010;12.120;2023-05-09T09:50:34;97980.34;;;17.79;69.69
17635;BME280;8936;49.010;12.120;2023-05-09T09:53:01;97985.44;;;18.11;65.48
17635;BME280;8936;49.010;12.120;2023-05-09T09:55:28;97976.88;;;18.09;64.22
17635;BME280;8936;49.010;12.120;2023-05-09T09:57:54;97969.34;;;18.28;65.13
17635;BME280;8936;49.010;12.120;2023-05-09T10:00:25;97953.88;;;18.29;64.39
17635;BME280;8936;49.010;12.120;2023-05-09T10:02:52;97962.72;;;18.12;62.57
17635;BME280;8936;49.010;12.120;2023-05-09T10:05:20;97956.13;;;18.66;64.00
17635;BME280;8936;49.010;12.120;2023-05-09T10:07:49;97956.09;;;18.49;64.06
17635;BME280;8936;49.010;12.120;2023-05-09T10:10:16;97938.34;;;18.34;63.37
17635;BME280;8936;49.010;12.120;2023-05-09T10:12:43;97942.56;;;18.58;65.16
17635;BME280;8936;49.010;12.120;2023-05-09T10:15:10;97932.44;;;18.72;64.10
17635;BME280;8936;49.010;12.120;2023-05-09T10:17:38;97935.28;;;18.67;62.80
17635;BME280;8936;49.010;12.120;2023-05-09T10:20:05;97914.34;;;18.90;63.61
17635;BME280;8936;49.010;12.120;2023-05-09T10:22:32;97924.66;;;18.79;62.87
17635;BME280;8936;49.010;12.120;2023-05-09T10:25:00;97923.06;;;18.78;62.25
17635;BME280;8936;49.010;12.120;2023-05-09T10:27:27;97920.38;;;18.78;62.19
17635;BME280;8936;49.010;12.120;2023-05-09T10:29:56;97913.69;;;19.01;62.40
17635;BME280;8936;49.010;12.120;2023-05-09T10:32:29;97903.38;;;19.46;63.22
17635;BME280;8936;49.010;12.120;2023-05-09T10:35:01;97907.81;;;19.25;61.04
17635;BME280;8936;49.010;12.120;2023-05-09T10:37:29;97905.13;;;19.33;62.23
17635;BME280;8936;49.010;12.120;2023-05-09T10:39:56;97894.13;;;19.30;59.61
17635;BME280;8936;49.010;12.120;2023-05-09T10:42:23;97899.84;;;19.28;58.84
17635;BME280;8936;49.010;12.120;2023-05-09T10:44:50;97894.28;;;19.16;60.20
17635;BME280;8936;49.010;12.120;2023-05-09T10:47:17;97894.13;;;19.30;59.18
17635;BME280;8936;49.010;12.120;2023-05-09T10:49:44;97888.88;;;19.08;58.38
17635;BME280;8936;49.010;12.120;2023-05-09T10:52:12;97887.44;;;18.84;59.19
17635;BME280;8936;49.010;12.120;2023-05-09T10:54:39;97878.81;;;18.82;60.66
17635;BME280;8936;49.010;12.120;2023-05-09T10:57:08;97870.41;;;19.18;60.67
17635;BME280;8936;49.010;12.120;2023-05-09T10:59:35;97858.63;;;19.06;60.16
17635;BME280;8936;49.010;12.120;2023-05-09T11:02:01;97855.91;;;19.23;59.55
17635;BME280;8936;49.010;12.120;2023-05-09T11:04:28;97853.53;;;19.21;60.44
17635;BME280;8936;49.010;12.120;2023-05-09T11:06:55;97852.34;;;19.74;60.27
17635;BME280;8936;49.010;12.120;2023-05-09T11:09:23;97852.41;;;19.39;58.00
17635;BME280;8936;49.010;12.120;2023-05-09T11:11:51;97845.53;;;19.16;58.89
17635;BME280;8936;49.010;12.120;2023-05-09T11:14:27;97848.44;;;19.11;60.47
17635;BME280;8936;49.010;12.120;2023-05-09T11:16:57;97842.84;;;19.08;60.58
17635;BME280;8936;49.010;12.120;2023-05-09T11:19:36;97844.13;;;19.10;60.34
17635;BME280;8936;49.010;12.120;2023-05-09T11:22:12;97837.88;;;19.35;61.50
17635;BME280;8936;49.010;12.120;2023-05-09T11:24:43;97828.00;;;19.57;61.58
17635;BME280;8936;49.010;12.120;2023-05-09T11:27:13;97815.38;;;19.69;61.67
17635;BME280;8936;49.010;12.120;2023-05-09T11:29:43;97811.94;;;19.43;60.31
17635;BME280;8936;49.010;12.120;2023-05-09T11:32:20;97804.09;;;19.50;61.00
17635;BME280;8936;49.010;12.120;2023-05-09T11:34:47;97806.28;;;19.65;59.94
17635;BME280;8936;49.010;12.120;2023-05-09T11:37:15;97797.69;;;19.63;60.28
17635;BME280;8936;49.010;12.120;2023-05-09T11:39:55;97796.47;;;19.90;61.10
17635;BME280;8936;49.010;12.120;2023-05-09T11:42:22;97798.78;;;19.71;62.36
17635;BME280;8936;49.010;12.120;2023-05-09T11:44:49;97777.53;;;19.81;63.15
17635;BME280;8936;49.010;12.120;2023-05-09T11:47:16;97774.91;;;20.02;63.24
17635;BME280;8936;49.010;12.120;2023-05-09T11:49:42;97773.44;;;20.05;62.32
17635;BME280;8936;49.010;12.120;2023-05-09T11:52:09;97767.44;;;19.90;61.56
17635;BME280;8936;49.010;12.120;2023-05-09T11:54:36;97763.72;;;19.66;60.55
17635;BME280;8936;49.010;12.120;2023-05-09T11:57:04;97750.78;;;19.80;62.67
17635;BME280;8936;49.010;12.120;2023-05-09T11:59:31;97754.25;;;19.51;62.26
17635;BME280;8936;49.010;12.120;2023-05-09T12:02:01;97743.44;;;19.80;62.63
17635;BME280;8936;49.010;12.120;2023-05-09T12:04:28;97730.31;;;19.91;62.58
17635;BME280;8936;49.010;12.120;2023-05-09T12:06:56;97741.75;;;19.97;61.60
17635;BME280;8936;49.010;12.120;2023-05-09T12:09:23;97734.13;;;19.90;60.83
17635;BME280;8936;49.010;12.120;2023-05-09T12:11:50;97732.34;;;19.94;61.70
17635;BME280;8936;49.010;12.120;2023-05-09T12:14:27;97714.56;;;19.84;62.03
17635;BME280;8936;49.010;12.120;2023-05-09T12:16:54;97710.91;;;20.10;62.55
17635;BME280;8936;49.010;12.120;2023-05-09T12:19:21;97710.94;;;20.30;63.05
17635;BME280;8936;49.010;12.120;2023-05-09T12:21:47;97713.25;;;20.40;63.28
17635;BME280;8936;49.010;12.120;2023-05-09T12:24:18;97710.59;;;20.53;63.89
17635;BME280;8936;49.010;12.120;2023-05-09T12:26:45;97702.06;;;20.63;63.30
17635;BME280;8936;49.010;12.120;2023-05-09T12:29:12;97691.88;;;20.60;64.36
17635;BME280;8936;49.010;12.120;2023-05-09T12:31:40;97695.53;;;20.43;65.08
17635;BME280;8936;49.010;12.120;2023-05-09T12:34:07;97691.28;;;20.33;65.70
17635;BME280;8936;49.010;12.120;2023-05-09T12:36:34;97697.19;;;20.35;67.18
17635;BME280;8936;49.010;12.120;2023-05-09T12:39:01;97690.72;;;20.49;66.92
17635;BME280;8936;49.010;12.120;2023-05-09T12:41:28;97694.13;;;20.58;67.96
17635;BME280;8936;49.010;12.120;2023-05-09T12:43:55;97677.19;;;20.61;68.37
17635;BME280;8936;49.010;12.120;2023-05-09T12:46:21;97687.41;;;20.76;66.44
17635;BME280;8936;49.010;12.120;2023-05-09T12:48:49;97678.88;;;20.65;65.97
17635;BME280;8936;49.010;12.120;2023-05-09T12:51:16;97673.34;;;20.62;67.38
17635;BME280;8936;49.010;12.120;2023-05-09T12:53:43;97660.78;;;20.57;67.80
17635;BME280;8936;49.010;12.120;2023-05-09T12:56:13;97660.25;;;20.64;66.33
17635;BME280;8936;49.010;12.120;2023-05-09T12:58:46;97660.69;;;20.66;67.16
17635;BME280;8936;49.010;12.120;2023-05-09T13:01:13;97652.47;;;20.74;67.73